Yokkaichi, Japan
Current Conditions -  °F | °C
As of 6:30 AM on Saturday 01 Nov 2014 (Local Time) from RJGG Reporting Station
Rain Showers Rain Showers  
Wind Chill: 61°   Ceiling: 600
Heat Index: 61°   Visibility: 2.5mi
Dew Point: 61°   Wind: 5mph
Humidity: 100%   Direction: 20°NNE
Pressure: 30"   Gusts: NA
Location:  34.97°N, 136.64°E
Report Text: RJGG 312130Z 02004KT 330V090 4000 -SHRA FEW004 BKN006 BKN010 16/16 Q1016 BECMG 10012KT TEMPO 3000 SHRA BR
Loading
Personal Weather Stations






























Interactive Weather Map
Tropical Storm Tracking
New forecast layout! Learn more

10-Day Weather Forecast

Advertisements
Track Severe Weather on mobile